Time,TemperatureF,DewpointF,PressureIn,WindDirection,WindDirectionDegrees,WindSpeedMPH,WindSpeedGustMPH,Humidity,HourlyPrecipIn,Conditions,Clouds,dailyrainin,SoftwareType,DateUTC
2013-01-13 00:02:00,8.0,1.0,-100.00,NNW,335,15.0,17.0,72,-99.99,,,-99.99,,2013-01-13 07:02:00,
2013-01-13 00:12:00,8.0,1.0,-100.00,NNW,340,14.0,17.0,72,-99.99,,,-99.99,,2013-01-13 07:12:00,
2013-01-13 00:22:00,8.0,1.0,-100.00,NNW,345,11.0,15.0,72,-99.99,,,-99.99,,2013-01-13 07:22:00,
2013-01-13 00:32:00,8.0,1.0,-100.00,NNW,340,12.0,16.0,72,-99.99,,,-99.99,,2013-01-13 07:32:00,
2013-01-13 00:42:00,8.0,1.0,-100.00,NNW,340,13.0,18.0,72,-99.99,,,-99.99,,2013-01-13 07:42:00,
2013-01-13 00:52:00,8.0,1.0,-100.00,North,350,11.0,16.0,72,-99.99,,,-99.99,,2013-01-13 07:52:00,
2013-01-13 01:02:00,8.0,2.0,-100.00,North,5,9.0,15.0,73,-99.99,,,-99.99,,2013-01-13 08:02:00,
2013-01-13 01:12:00,8.0,2.0,-100.00,North,10,11.0,13.0,75,-99.99,,,-99.99,,2013-01-13 08:12:00,
2013-01-13 01:22:00,7.0,2.0,-100.00,NNE,15,11.0,13.0,78,-99.99,,,-99.99,,2013-01-13 08:22:00,
2013-01-13 01:32:00,7.0,2.0,-100.00,North,10,11.0,14.0,79,-99.99,,,-99.99,,2013-01-13 08:32:00,
2013-01-13 01:42:00,7.0,2.0,-100.00,NNE,15,10.0,12.0,80,-99.99,,,-99.99,,2013-01-13 08:42:00,
2013-01-13 01:52:00,7.0,3.0,-100.00,North,10,9.0,12.0,81,-99.99,,,-99.99,,2013-01-13 08:52:00,
2013-01-13 02:02:00,7.0,3.0,-100.00,NNE,15,7.0,10.0,81,-99.99,,,-99.99,,2013-01-13 09:02:00,
2013-01-13 02:12:00,7.0,3.0,-100.00,North,10,7.0,10.0,81,-99.99,,,-99.99,,2013-01-13 09:12:00,
2013-01-13 02:22:00,7.0,3.0,-100.00,NNE,20,7.0,9.0,82,-99.99,,,-99.99,,2013-01-13 09:22:00,
2013-01-13 02:32:00,7.0,3.0,-100.00,NNE,15,7.0,8.0,82,-99.99,,,-99.99,,2013-01-13 09:32:00,
2013-01-13 02:42:00,6.0,2.0,-100.00,NNE,15,6.0,7.0,83,-99.99,,,-99.99,,2013-01-13 09:42:00,
2013-01-13 02:52:00,7.0,3.0,-100.00,North,5,5.0,7.0,83,-99.99,,,-99.99,,2013-01-13 09:52:00,
2013-01-13 03:02:00,7.0,3.0,-100.00,NNE,15,7.0,8.0,83,-99.99,,,-99.99,,2013-01-13 10:02:00,
2013-01-13 03:12:00,7.0,3.0,-100.00,North,0,6.0,9.0,83,-99.99,,,-99.99,,2013-01-13 10:12:00,
2013-01-13 03:22:00,8.0,4.0,-100.00,North,350,7.0,9.0,82,-99.99,,,-99.99,,2013-01-13 10:22:00,
2013-01-13 03:32:00,8.0,4.0,-100.00,North,350,8.0,11.0,81,-99.99,,,-99.99,,2013-01-13 10:32:00,
2013-01-13 03:42:00,8.0,4.0,-100.00,North,350,9.0,12.0,81,-99.99,,,-99.99,,2013-01-13 10:42:00,
2013-01-13 03:52:00,8.0,3.0,-100.00,North,355,9.0,11.0,81,-99.99,,,-99.99,,2013-01-13 10:52:00,
2013-01-13 04:02:00,7.0,3.0,-100.00,North,0,9.0,12.0,81,-99.99,,,-99.99,,2013-01-13 11:02:00,
2013-01-13 04:12:00,7.0,3.0,-100.00,North,5,7.0,10.0,82,-99.99,,,-99.99,,2013-01-13 11:12:00,
2013-01-13 04:22:00,7.0,3.0,-100.00,North,5,9.0,9.0,82,-99.99,,,-99.99,,2013-01-13 11:22:00,
2013-01-13 04:32:00,7.0,3.0,-100.00,North,0,7.0,9.0,82,-99.99,,,-99.99,,2013-01-13 11:32:00,
2013-01-13 04:42:00,7.0,3.0,-100.00,North,0,7.0,8.0,83,-99.99,,,-99.99,,2013-01-13 11:42:00,
2013-01-13 04:52:00,7.0,3.0,-100.00,North,0,7.0,9.0,83,-99.99,,,-99.99,,2013-01-13 11:52:00,
2013-01-13 05:03:00,6.0,2.0,-100.00,North,10,6.0,7.0,83,-99.99,,,-99.99,,2013-01-13 12:03:00,
2013-01-13 05:12:00,6.0,2.0,-100.00,North,10,6.0,7.0,83,-99.99,,,-99.99,,2013-01-13 12:12:00,
2013-01-13 05:22:00,6.0,3.0,-100.00,North,5,7.0,9.0,83,-99.99,,,-99.99,,2013-01-13 12:22:00,
2013-01-13 05:32:00,6.0,2.0,-100.00,North,10,7.0,9.0,83,-99.99,,,-99.99,,2013-01-13 12:32:00,
2013-01-13 05:42:00,6.0,2.0,-100.00,North,5,7.0,10.0,83,-99.99,,,-99.99,,2013-01-13 12:42:00,
2013-01-13 05:52:00,6.0,2.0,-100.00,North,5,6.0,9.0,83,-99.99,,,-99.99,,2013-01-13 12:52:00,
2013-01-13 06:02:00,6.0,2.0,-100.00,NNE,20,7.0,8.0,84,-99.99,,,-99.99,,2013-01-13 13:02:00,
2013-01-13 06:12:00,6.0,2.0,-100.00,North,10,6.0,7.0,85,-99.99,,,-99.99,,2013-01-13 13:12:00,
2013-01-13 06:22:00,5.0,1.0,-100.00,NNE,20,7.0,7.0,85,-99.99,,,-99.99,,2013-01-13 13:22:00,
2013-01-13 06:33:00,4.0,1.0,-100.00,NNE,20,7.0,8.0,84,-99.99,,,-99.99,,2013-01-13 13:33:00,
2013-01-13 06:42:00,4.0,0.0,-100.00,North,5,7.0,9.0,84,-99.99,,,-99.99,,2013-01-13 13:42:00,
2013-01-13 06:53:00,4.0,0.0,-100.00,West,265,1.0,7.0,83,-99.99,,,-99.99,,2013-01-13 13:53:00,
2013-01-13 07:03:00,3.0,-1.0,-100.00,West,265,3.0,6.0,82,-99.99,,,-99.99,,2013-01-13 14:03:00,
2013-01-13 07:12:00,3.0,-1.0,-100.00,NW,305,3.0,4.0,82,-99.99,,,-99.99,,2013-01-13 14:12:00,
2013-01-13 07:22:00,2.0,-2.0,-100.00,NE,55,1.0,2.0,81,-99.99,,,-99.99,,2013-01-13 14:22:00,
2013-01-13 07:33:00,3.0,-1.0,-100.00,SSE,160,1.0,2.0,81,-99.99,,,-99.99,,2013-01-13 14:33:00,
2013-01-13 07:43:00,4.0,0.0,-100.00,WNW,295,4.0,7.0,81,-99.99,,,-99.99,,2013-01-13 14:43:00,
2013-01-13 07:52:00,7.0,1.0,-100.00,NNW,335,12.0,15.0,76,-99.99,,,-99.99,,2013-01-13 14:52:00,
2013-01-13 08:03:00,7.0,0.0,-100.00,NNW,340,10.0,17.0,73,-99.99,,,-99.99,,2013-01-13 15:03:00,
2013-01-13 08:12:00,7.0,0.0,-100.00,North,350,12.0,17.0,73,-99.99,,,-99.99,,2013-01-13 15:12:00,
2013-01-13 08:22:00,7.0,0.0,-100.00,North,350,13.0,18.0,73,-99.99,,,-99.99,,2013-01-13 15:22:00,
2013-01-13 08:33:00,7.0,1.0,-100.00,NNW,340,15.0,19.0,74,-99.99,,,-99.99,,2013-01-13 15:33:00,
2013-01-13 08:43:00,8.0,1.0,-100.00,NNW,335,15.0,21.0,74,-99.99,,,-99.99,,2013-01-13 15:43:00,
2013-01-13 08:52:00,8.0,1.0,-100.00,NNW,340,16.0,23.0,73,-99.99,,,-99.99,,2013-01-13 15:52:00,
2013-01-13 09:03:00,8.0,1.0,-100.00,NNW,340,16.0,20.0,74,-99.99,,,-99.99,,2013-01-13 16:03:00,
2013-01-13 09:12:00,8.0,2.0,-100.00,NNW,340,14.0,19.0,75,-99.99,,,-99.99,,2013-01-13 16:12:00,
2013-01-13 09:22:00,8.0,2.0,-100.00,NNW,340,17.0,23.0,76,-99.99,,,-99.99,,2013-01-13 16:22:00,
2013-01-13 09:33:00,9.0,3.0,-100.00,NNW,345,17.0,22.0,76,-99.99,,,-99.99,,2013-01-13 16:33:00,
2013-01-13 09:42:00,9.0,3.0,-100.00,NNW,340,19.0,22.0,76,-99.99,,,-99.99,,2013-01-13 16:42:00,
2013-01-13 09:52:00,9.0,2.0,-100.00,North,0,13.0,21.0,75,-99.99,,,-99.99,,2013-01-13 16:52:00,
2013-01-13 10:03:00,8.0,2.0,-100.00,North,0,11.0,16.0,76,-99.99,,,-99.99,,2013-01-13 17:03:00,
2013-01-13 10:12:00,8.0,2.0,-100.00,NNW,345,12.0,15.0,76,-99.99,,,-99.99,,2013-01-13 17:12:00,
2013-01-13 10:22:00,9.0,3.0,-100.00,NNW,340,12.0,16.0,75,-99.99,,,-99.99,,2013-01-13 17:22:00,
2013-01-13 10:33:00,9.0,1.0,-100.00,NNW,335,14.0,19.0,68,-99.99,,,-99.99,,2013-01-13 17:33:00,
2013-01-13 10:42:00,10.0,0.0,-100.00,NNW,340,14.0,17.0,65,-99.99,,,-99.99,,2013-01-13 17:42:00,
2013-01-13 10:53:00,10.0,0.0,-100.00,NNW,340,14.0,21.0,62,-99.99,,,-99.99,,2013-01-13 17:53:00,
2013-01-13 11:03:00,10.0,-1.0,-100.00,NNW,340,17.0,20.0,59,-99.99,,,-99.99,,2013-01-13 18:03:00,
2013-01-13 11:12:00,10.0,-1.0,-100.00,NNW,340,14.0,20.0,59,-99.99,,,-99.99,,2013-01-13 18:12:00,
2013-01-13 11:22:00,11.0,-2.0,-100.00,NNW,340,18.0,22.0,56,-99.99,,,-99.99,,2013-01-13 18:22:00,
2013-01-13 11:33:00,11.0,-1.0,-100.00,NNW,345,14.0,21.0,54,-99.99,,,-99.99,,2013-01-13 18:33:00,
2013-01-13 11:42:00,12.0,-1.0,-100.00,NNW,345,12.0,17.0,55,-99.99,,,-99.99,,2013-01-13 18:42:00,
2013-01-13 11:53:00,12.0,-1.0,-100.00,North,0,13.0,17.0,55,-99.99,,,-99.99,,2013-01-13 18:53:00,
2013-01-13 12:02:00,12.0,-1.0,-100.00,North,355,12.0,15.0,55,-99.99,,,-99.99,,2013-01-13 19:02:00,
2013-01-13 12:12:00,12.0,-1.0,-100.00,North,0,11.0,16.0,54,-99.99,,,-99.99,,2013-01-13 19:12:00,
2013-01-13 12:22:00,12.0,-1.0,-100.00,North,5,12.0,17.0,55,-99.99,,,-99.99,,2013-01-13 19:22:00,
2013-01-13 12:33:00,12.0,-2.0,-100.00,North,0,14.0,17.0,53,-99.99,,,-99.99,,2013-01-13 19:33:00,
2013-01-13 12:42:00,12.0,-1.0,-100.00,North,10,13.0,19.0,55,-99.99,,,-99.99,,2013-01-13 19:42:00,
2013-01-13 12:52:00,12.0,-1.0,-100.00,North,0,15.0,19.0,56,-99.99,,,-99.99,,2013-01-13 19:52:00,
2013-01-13 13:03:00,11.0,-1.0,-100.00,North,5,15.0,19.0,58,-99.99,,,-99.99,,2013-01-13 20:03:00,
2013-01-13 13:12:00,11.0,0.0,-100.00,North,0,15.0,19.0,60,-99.99,,,-99.99,,2013-01-13 20:12:00,
2013-01-13 13:22:00,11.0,0.0,-100.00,North,5,13.0,19.0,61,-99.99,,,-99.99,,2013-01-13 20:22:00,
2013-01-13 13:33:00,12.0,1.0,-100.00,North,0,12.0,15.0,60,-99.99,,,-99.99,,2013-01-13 20:33:00,
2013-01-13 13:43:00,11.0,0.0,-100.00,North,0,14.0,17.0,58,-99.99,,,-99.99,,2013-01-13 20:43:00,
2013-01-13 13:53:00,12.0,0.0,-100.00,NNW,345,12.0,17.0,57,-99.99,,,-99.99,,2013-01-13 20:53:00,
2013-01-13 14:03:00,11.0,0.0,-100.00,North,0,16.0,20.0,58,-99.99,,,-99.99,,2013-01-13 21:03:00,
2013-01-13 14:12:00,11.0,0.0,-100.00,North,5,16.0,20.0,58,-99.99,,,-99.99,,2013-01-13 21:12:00,
2013-01-13 14:23:00,13.0,1.0,-100.00,NNW,345,12.0,19.0,59,-99.99,,,-99.99,,2013-01-13 21:23:00,
2013-01-13 14:33:00,12.0,1.0,-100.00,North,0,14.0,18.0,59,-99.99,,,-99.99,,2013-01-13 21:33:00,
2013-01-13 14:42:00,12.0,0.0,-100.00,North,0,15.0,17.0,59,-99.99,,,-99.99,,2013-01-13 21:42:00,
2013-01-13 14:52:00,12.0,0.0,-100.00,NNW,345,12.0,17.0,58,-99.99,,,-99.99,,2013-01-13 21:52:00,
2013-01-13 15:02:00,12.0,0.0,-100.00,North,355,10.0,16.0,58,-99.99,,,-99.99,,2013-01-13 22:02:00,
2013-01-13 15:12:00,12.0,0.0,-100.00,North,355,12.0,16.0,57,-99.99,,,-99.99,,2013-01-13 22:12:00,
2013-01-13 15:22:00,12.0,-1.0,-100.00,NNW,340,12.0,14.0,55,-99.99,,,-99.99,,2013-01-13 22:22:00,
2013-01-13 15:33:00,11.0,-1.0,-100.00,NNW,345,9.0,14.0,56,-99.99,,,-99.99,,2013-01-13 22:33:00,
2013-01-13 15:52:00,11.0,-1.0,-100.00,NNW,340,11.0,14.0,56,-99.99,,,-99.99,,2013-01-13 22:52:00,
2013-01-13 16:02:00,11.0,-2.0,-100.00,NNW,340,12.0,15.0,55,-99.99,,,-99.99,,2013-01-13 23:02:00,
2013-01-13 16:12:00,11.0,-2.0,-100.00,NNW,345,10.0,14.0,55,-99.99,,,-99.99,,2013-01-13 23:12:00,
2013-01-13 16:22:00,11.0,-2.0,-100.00,NNW,345,9.0,14.0,55,-99.99,,,-99.99,,2013-01-13 23:22:00,
2013-01-13 16:33:00,10.0,-2.0,-100.00,North,0,11.0,13.0,56,-99.99,,,-99.99,,2013-01-13 23:33:00,
2013-01-13 16:42:00,10.0,-2.0,-100.00,North,0,11.0,13.0,56,-99.99,,,-99.99,,2013-01-13 23:42:00,
2013-01-13 16:52:00,10.0,-3.0,-100.00,North,0,10.0,12.0,55,-99.99,,,-99.99,,2013-01-13 23:52:00,
2013-01-13 17:02:00,10.0,-3.0,-100.00,North,355,10.0,12.0,55,-99.99,,,-99.99,,2013-01-14 00:02:00,
2013-01-13 17:12:00,10.0,-3.0,-100.00,North,0,10.0,12.0,55,-99.99,,,-99.99,,2013-01-14 00:12:00,
2013-01-13 17:22:00,9.0,-3.0,-100.00,North,350,11.0,11.0,55,-99.99,,,-99.99,,2013-01-14 00:22:00,
2013-01-13 17:33:00,9.0,-3.0,-100.00,North,350,11.0,12.0,54,-99.99,,,-99.99,,2013-01-14 00:33:00,
2013-01-13 17:43:00,9.0,-4.0,-100.00,NNW,345,10.0,12.0,55,-99.99,,,-99.99,,2013-01-14 00:43:00,
2013-01-13 17:52:00,8.0,-4.0,-100.00,NNW,335,8.0,11.0,56,-99.99,,,-99.99,,2013-01-14 00:52:00,
2013-01-13 18:03:00,7.0,-5.0,-100.00,NNW,335,4.0,9.0,57,-99.99,,,-99.99,,2013-01-14 01:03:00,
2013-01-13 18:12:00,6.0,-5.0,-100.00,West,275,2.0,6.0,58,-99.99,,,-99.99,,2013-01-14 01:12:00,
2013-01-13 18:22:00,6.0,-5.0,-100.00,WNW,285,2.0,3.0,60,-99.99,,,-99.99,,2013-01-14 01:22:00,
2013-01-13 18:32:00,6.0,-4.0,-100.00,WNW,285,4.0,6.0,60,-99.99,,,-99.99,,2013-01-14 01:32:00,
2013-01-13 18:42:00,6.0,-5.0,-100.00,WNW,290,4.0,6.0,60,-99.99,,,-99.99,,2013-01-14 01:42:00,
2013-01-13 18:52:00,5.0,-5.0,-100.00,NNW,340,5.0,6.0,62,-99.99,,,-99.99,,2013-01-14 01:52:00,
2013-01-13 19:02:00,5.0,-5.0,-100.00,SW,225,2.0,7.0,62,-99.99,,,-99.99,,2013-01-14 02:02:00,
2013-01-13 19:12:00,5.0,-5.0,-100.00,SW,235,1.0,5.0,62,-99.99,,,-99.99,,2013-01-14 02:12:00,
2013-01-13 19:22:00,4.0,-6.0,-100.00,NW,310,2.0,2.0,62,-99.99,,,-99.99,,2013-01-14 02:22:00,
2013-01-13 19:32:00,5.0,-5.0,-100.00,NW,320,2.0,2.0,63,-99.99,,,-99.99,,2013-01-14 02:32:00,
2013-01-13 19:42:00,4.0,-6.0,-100.00,WNW,290,0.0,2.0,63,-99.99,,,-99.99,,2013-01-14 02:42:00,
2013-01-13 19:53:00,4.0,-6.0,-100.00,NNW,335,2.0,3.0,64,-99.99,,,-99.99,,2013-01-14 02:53:00,
2013-01-13 20:02:00,5.0,-5.0,-100.00,NNW,345,2.0,4.0,63,-99.99,,,-99.99,,2013-01-14 03:02:00,
2013-01-13 20:12:00,5.0,-6.0,-100.00,NNW,330,2.0,4.0,61,-99.99,,,-99.99,,2013-01-14 03:12:00,
2013-01-13 20:22:00,4.0,-6.0,-100.00,NW,315,3.0,4.0,60,-99.99,,,-99.99,,2013-01-14 03:22:00,
2013-01-13 20:32:00,4.0,-7.0,-100.00,NW,315,4.0,6.0,59,-99.99,,,-99.99,,2013-01-14 03:32:00,
2013-01-13 20:42:00,3.0,-8.0,-100.00,NW,310,4.0,6.0,59,-99.99,,,-99.99,,2013-01-14 03:42:00,
2013-01-13 20:52:00,1.0,-10.0,-100.00,WNW,285,2.0,4.0,59,-99.99,,,-99.99,,2013-01-14 03:52:00,
2013-01-13 21:02:00,0.0,-10.0,-100.00,NNW,340,1.0,3.0,60,-99.99,,,-99.99,,2013-01-14 04:02:00,
2013-01-13 21:12:00,1.0,-10.0,-100.00,North,5,3.0,5.0,60,-99.99,,,-99.99,,2013-01-14 04:12:00,
2013-01-13 21:22:00,2.0,-9.0,-100.00,North,355,2.0,4.0,60,-99.99,,,-99.99,,2013-01-14 04:22:00,
2013-01-13 21:32:00,3.0,-9.0,-100.00,NNW,345,1.0,3.0,56,-99.99,,,-99.99,,2013-01-14 04:32:00,
2013-01-13 21:42:00,4.0,-9.0,-100.00,NNW,330,3.0,4.0,55,-99.99,,,-99.99,,2013-01-14 04:42:00,
2013-01-13 21:52:00,3.0,-10.0,-100.00,NE,40,2.0,2.0,54,-99.99,,,-99.99,,2013-01-14 04:52:00,
2013-01-13 22:03:00,4.0,-9.0,-100.00,WNW,300,2.0,3.0,53,-99.99,,,-99.99,,2013-01-14 05:03:00,
2013-01-13 22:12:00,3.0,-10.0,-100.00,NNW,330,2.0,4.0,53,-99.99,,,-99.99,,2013-01-14 05:12:00,
2013-01-13 22:22:00,4.0,-10.0,-100.00,NW,305,2.0,4.0,52,-99.99,,,-99.99,,2013-01-14 05:22:00,
2013-01-13 22:32:00,4.0,-10.0,-100.00,NW,315,1.0,4.0,52,-99.99,,,-99.99,,2013-01-14 05:32:00,
2013-01-13 22:42:00,3.0,-10.0,-100.00,West,275,2.0,3.0,52,-99.99,,,-99.99,,2013-01-14 05:42:00,
2013-01-13 22:52:00,3.0,-11.0,-100.00,West,265,0.0,1.0,52,-99.99,,,-99.99,,2013-01-14 05:52:00,
2013-01-13 23:03:00,3.0,-10.0,-100.00,ENE,60,2.0,2.0,51,-99.99,,,-99.99,,2013-01-14 06:03:00,
2013-01-13 23:12:00,4.0,-10.0,-100.00,NE,40,2.0,3.0,50,-99.99,,,-99.99,,2013-01-14 06:12:00,
2013-01-13 23:22:00,4.0,-10.0,-100.00,East,90,3.0,5.0,50,-99.99,,,-99.99,,2013-01-14 06:22:00,
2013-01-13 23:33:00,4.0,-10.0,-100.00,East,95,3.0,6.0,52,-99.99,,,-99.99,,2013-01-14 06:33:00,
2013-01-13 23:42:00,4.0,-10.0,-100.00,SE,135,2.0,4.0,52,-99.99,,,-99.99,,2013-01-14 06:42:00,
2013-01-13 23:52:00,3.0,-10.0,-100.00,SSE,160,1.0,2.0,53,-99.99,,,-99.99,,2013-01-14 06:52:00,